Skagen, Denmark
Current Conditions -  °F | °C
As of 8:58 AM on Wednesday 22 Oct 2014 (Local Time) from ESGP Reporting Station
Drizzle Drizzle  
Wind Chill: 10°   Ceiling: 1700
Heat Index: 10°   Visibility: 6mi
Dew Point:   Wind: 8mph
Humidity: 87%   Direction: 80°E
Pressure: 29.68"   Gusts: NA
Location:  57.72°N, 10.58°E
Report Text: ESGP 220658Z 08007KT 9999 DZ SCT012 OVC017 10/08 Q1005
Loading
Personal Weather Stations






























Interactive Weather Map
Tropical Storm Tracking
New forecast layout! Learn more

10-Day Weather Forecast

Advertisements
Track Severe Weather on mobile